createdAt,value
2024-01-08T00:02:12.402Z,1.90
2024-01-08T00:04:39.956Z,2.30
2024-01-08T00:07:07.219Z,2.30
2024-01-08T00:09:34.332Z,2.00
2024-01-08T00:12:01.428Z,2.20
2024-01-08T00:14:28.840Z,1.90
2024-01-08T00:16:56.226Z,2.22
2024-01-08T00:19:23.832Z,2.33
2024-01-08T00:21:51.001Z,2.20
2024-01-08T00:24:18.106Z,1.80
2024-01-08T00:26:45.238Z,2.00
2024-01-08T00:29:12.441Z,2.47
2024-01-08T00:31:39.626Z,2.25
2024-01-08T00:34:09.313Z,2.40
2024-01-08T00:36:36.589Z,2.20
2024-01-08T00:39:03.726Z,2.45
2024-01-08T00:41:30.916Z,2.20
2024-01-08T00:43:58.033Z,2.25
2024-01-08T00:46:25.682Z,2.28
2024-01-08T00:48:52.838Z,2.40
2024-01-08T00:51:20.009Z,2.63
2024-01-08T00:53:47.216Z,2.50
2024-01-08T00:56:16.778Z,2.63
2024-01-08T00:58:44.376Z,2.78
2024-01-08T01:01:13.171Z,2.80
2024-01-08T01:03:40.459Z,2.58
2024-01-08T01:06:07.809Z,2.65
2024-01-08T01:08:35.033Z,2.70
2024-01-08T01:11:03.384Z,2.53
2024-01-08T01:13:30.602Z,2.78
2024-01-08T01:15:58.893Z,2.67
2024-01-08T01:18:26.193Z,2.85
2024-01-08T01:20:53.915Z,3.05
2024-01-08T01:23:21.093Z,2.67
2024-01-08T01:25:48.336Z,2.90
2024-01-08T01:28:15.481Z,2.83
2024-01-08T01:30:42.738Z,3.15
2024-01-08T01:33:09.902Z,2.83
2024-01-08T01:35:37.136Z,2.70
2024-01-08T01:38:04.389Z,2.58
2024-01-08T01:40:31.575Z,2.47
2024-01-08T01:42:58.656Z,2.60
2024-01-08T01:45:25.986Z,2.33
2024-01-08T01:47:57.142Z,2.65
2024-01-08T01:50:25.239Z,2.50
2024-01-08T01:52:53.028Z,2.37
2024-01-08T01:55:20.274Z,2.47
2024-01-08T01:57:48.211Z,2.30
2024-01-08T02:00:15.805Z,2.80
2024-01-08T02:02:43.409Z,2.42
2024-01-08T02:05:11.539Z,2.22
2024-01-08T02:07:39.003Z,2.58
2024-01-08T02:10:06.377Z,2.30
2024-01-08T02:12:33.692Z,2.58
2024-01-08T02:15:05.318Z,2.45
2024-01-08T02:17:33.066Z,2.17
2024-01-08T02:20:00.372Z,2.40
2024-01-08T02:22:27.800Z,2.80
2024-01-08T02:24:56.576Z,2.35
2024-01-08T02:27:23.798Z,2.30
2024-01-08T02:29:50.931Z,2.45
2024-01-08T02:32:18.097Z,2.30
2024-01-08T02:34:45.363Z,2.03
2024-01-08T02:37:13.632Z,2.20
2024-01-08T02:39:40.765Z,2.00
2024-01-08T02:42:07.947Z,2.20
2024-01-08T02:44:35.166Z,2.27
2024-01-08T02:47:03.104Z,2.15
2024-01-08T02:49:30.220Z,2.08
2024-01-08T02:51:57.513Z,2.20
2024-01-08T02:54:24.621Z,2.28
2024-01-08T02:56:52.386Z,2.20
2024-01-08T02:59:19.616Z,1.90
2024-01-08T03:01:46.807Z,2.20
2024-01-08T03:04:14.520Z,2.05
2024-01-08T03:06:41.917Z,2.10
2024-01-08T03:09:09.175Z,1.92
2024-01-08T03:11:36.325Z,1.50
2024-01-08T03:14:03.497Z,1.90
2024-01-08T03:16:30.627Z,1.90
2024-01-08T03:18:57.672Z,1.77
2024-01-08T03:21:27.285Z,2.00
2024-01-08T03:23:54.418Z,1.90
2024-01-08T03:26:21.628Z,2.05
2024-01-08T03:28:49.056Z,1.90
2024-01-08T03:31:16.180Z,1.70
2024-01-08T03:33:44.252Z,2.10
2024-01-08T03:36:11.978Z,1.98
2024-01-08T03:38:39.254Z,1.97
2024-01-08T03:41:06.457Z,2.10
2024-01-08T03:43:33.620Z,1.98
2024-01-08T03:46:00.875Z,2.20
2024-01-08T03:48:28.057Z,2.20
2024-01-08T03:50:55.199Z,2.40
2024-01-08T03:53:22.446Z,2.63
2024-01-08T03:55:49.769Z,2.07
2024-01-08T03:58:16.907Z,1.92
2024-01-08T04:00:44.738Z,2.20
2024-01-08T04:03:11.958Z,2.20
2024-01-08T04:05:39.866Z,2.00
2024-01-08T04:08:07.335Z,2.20
2024-01-08T04:10:34.479Z,2.20
2024-01-08T04:13:01.581Z,1.92
2024-01-08T04:15:28.811Z,2.30
2024-01-08T04:17:56.122Z,2.28
2024-01-08T04:20:23.523Z,2.47
2024-01-08T04:22:51.223Z,2.33
2024-01-08T04:25:18.745Z,2.20
2024-01-08T04:27:46.050Z,2.28
2024-01-08T04:30:13.389Z,2.00
2024-01-08T04:32:40.726Z,2.30
2024-01-08T04:35:08.076Z,2.22
2024-01-08T04:37:35.219Z,2.22
2024-01-08T04:40:02.601Z,2.10
2024-01-08T04:42:29.739Z,2.47
2024-01-08T04:45:02.416Z,2.60
2024-01-08T04:47:29.621Z,2.20
2024-01-08T04:49:56.757Z,2.20
2024-01-08T04:52:23.943Z,2.40
2024-01-08T04:54:51.163Z,2.20
2024-01-08T04:57:18.960Z,2.45
2024-01-08T04:59:46.227Z,2.33
2024-01-08T05:02:13.572Z,2.50
2024-01-08T05:04:40.804Z,2.50
2024-01-08T05:07:08.547Z,2.15
2024-01-08T05:09:35.623Z,2.20
2024-01-08T05:12:02.779Z,2.20
2024-01-08T05:14:29.955Z,2.72
2024-01-08T05:16:57.673Z,2.40
2024-01-08T05:19:25.946Z,2.50
2024-01-08T05:21:54.245Z,2.50
2024-01-08T05:24:21.742Z,2.33
2024-01-08T05:26:48.841Z,2.20
2024-01-08T05:29:16.205Z,2.30
2024-01-08T05:31:43.531Z,2.15
2024-01-08T05:34:11.497Z,2.30
2024-01-08T05:36:43.971Z,2.63
2024-01-08T05:39:13.585Z,2.42
2024-01-08T05:41:42.629Z,2.50
2024-01-08T05:44:09.971Z,2.35
2024-01-08T05:46:41.155Z,2.45
2024-01-08T05:49:08.309Z,2.40
2024-01-08T05:51:35.814Z,2.50
2024-01-08T05:54:02.930Z,2.55
2024-01-08T05:56:31.052Z,2.78
2024-01-08T05:58:58.237Z,2.33
2024-01-08T06:01:25.523Z,2.20
2024-01-08T06:03:53.119Z,2.58
2024-01-08T06:06:20.424Z,2.33
2024-01-08T06:08:47.599Z,2.75
2024-01-08T06:11:14.671Z,2.58
2024-01-08T06:13:42.080Z,2.50
2024-01-08T06:16:09.197Z,2.40
2024-01-08T06:18:36.361Z,2.63
2024-01-08T06:21:03.597Z,2.42
2024-01-08T06:23:30.814Z,2.20
2024-01-08T06:25:57.952Z,2.90
2024-01-08T06:28:25.177Z,2.42
2024-01-08T06:30:52.317Z,2.20
2024-01-08T06:33:19.576Z,2.42
2024-01-08T06:35:46.885Z,2.30
2024-01-08T06:38:14.025Z,2.17
2024-01-08T06:40:41.285Z,2.30
2024-01-08T06:43:08.452Z,2.30
2024-01-08T06:45:35.593Z,2.45
2024-01-08T06:48:02.920Z,2.72
2024-01-08T06:50:30.168Z,1.92
2024-01-08T06:52:57.276Z,2.40
2024-01-08T06:55:24.425Z,2.50
2024-01-08T06:57:53.834Z,2.50
2024-01-08T07:00:21.317Z,2.40
2024-01-08T07:02:48.561Z,2.35
2024-01-08T07:05:16.781Z,2.40
2024-01-08T07:07:43.988Z,2.00
2024-01-08T07:10:11.237Z,2.85
2024-01-08T07:12:38.440Z,2.23
2024-01-08T07:15:06.009Z,2.30
2024-01-08T07:17:33.416Z,1.60
2024-01-08T07:20:01.506Z,2.73
2024-01-08T07:22:28.694Z,2.50
2024-01-08T07:24:55.830Z,2.87
2024-01-08T07:27:22.919Z,2.30
2024-01-08T07:29:50.003Z,2.80
2024-01-08T07:32:17.398Z,2.70
2024-01-08T07:34:44.608Z,2.72
2024-01-08T07:37:11.712Z,3.13
2024-01-08T07:39:38.969Z,2.90
2024-01-08T07:42:06.095Z,2.83
2024-01-08T07:44:33.332Z,2.45
2024-01-08T07:47:00.751Z,2.60
2024-01-08T07:49:27.941Z,3.17
2024-01-08T07:51:56.058Z,2.83
2024-01-08T07:54:23.217Z,3.13
2024-01-08T07:56:57.124Z,2.72
2024-01-08T07:59:29.481Z,3.70
2024-01-08T08:01:58.979Z,3.25
2024-01-08T08:04:26.787Z,3.47
2024-01-08T08:06:54.063Z,3.25
2024-01-08T08:09:21.309Z,3.67
2024-01-08T08:11:48.487Z,3.67
2024-01-08T08:14:15.663Z,3.37
2024-01-08T08:16:42.760Z,3.85
2024-01-08T08:19:10.054Z,3.67
2024-01-08T08:21:39.717Z,3.38
2024-01-08T08:24:06.969Z,3.33
2024-01-08T08:26:34.153Z,3.43
2024-01-08T08:29:01.997Z,3.05
2024-01-08T08:31:29.187Z,3.10
2024-01-08T08:34:01.075Z,3.23
2024-01-08T08:36:28.685Z,3.28
2024-01-08T08:38:55.914Z,3.08
2024-01-08T08:41:25.473Z,3.40
2024-01-08T08:43:55.093Z,3.42
2024-01-08T08:46:22.277Z,3.25
2024-01-08T08:48:49.528Z,3.80
2024-01-08T08:51:16.715Z,3.15
2024-01-08T08:53:43.865Z,3.40
2024-01-08T08:56:11.737Z,3.30
2024-01-08T08:58:39.026Z,3.45
2024-01-08T09:01:06.327Z,3.55
2024-01-08T09:03:36.187Z,3.80
2024-01-08T09:06:04.207Z,3.70
2024-01-08T09:08:31.432Z,3.38
2024-01-08T09:10:58.870Z,3.70
2024-01-08T09:13:25.971Z,3.60
2024-01-08T09:15:53.121Z,3.33
2024-01-08T09:18:20.491Z,3.92
2024-01-08T09:20:47.969Z,3.28
2024-01-08T09:23:15.169Z,3.90
2024-01-08T09:25:42.329Z,3.60
2024-01-08T09:28:09.424Z,3.88
2024-01-08T09:30:36.594Z,3.38
2024-01-08T09:33:03.946Z,4.00
2024-01-08T09:35:31.338Z,3.72
2024-01-08T09:37:58.477Z,4.30
2024-01-08T09:40:25.694Z,3.88
2024-01-08T09:42:56.533Z,4.07
2024-01-08T09:45:24.556Z,4.03
2024-01-08T09:47:52.008Z,3.80
2024-01-08T09:50:20.105Z,4.10
2024-01-08T09:52:47.905Z,3.93
2024-01-08T09:55:15.123Z,4.63
2024-01-08T09:57:42.276Z,4.30
2024-01-08T10:00:11.326Z,4.38
2024-01-08T10:02:38.837Z,4.22
2024-01-08T10:05:07.899Z,4.35
2024-01-08T10:07:36.166Z,4.20
2024-01-08T10:10:04.156Z,4.35
2024-01-08T10:12:34.478Z,3.70
2024-01-08T10:15:03.769Z,4.05
2024-01-08T10:17:32.216Z,4.10
2024-01-08T10:20:07.304Z,4.45
2024-01-08T10:22:34.622Z,4.65
2024-01-08T10:25:03.336Z,4.25
2024-01-08T10:27:30.973Z,3.50
2024-01-08T10:29:58.181Z,4.03
2024-01-08T10:32:25.725Z,4.00
2024-01-08T10:34:53.102Z,3.90
2024-01-08T10:37:20.080Z,3.97
2024-01-08T10:39:51.548Z,3.93
2024-01-08T10:42:19.362Z,4.22
2024-01-08T10:44:46.710Z,3.78
2024-01-08T10:47:18.649Z,4.25
2024-01-08T10:49:49.881Z,4.13
2024-01-08T10:52:36.021Z,4.57
2024-01-08T10:55:05.463Z,4.10
2024-01-08T10:57:37.698Z,4.47
2024-01-08T11:00:08.095Z,4.82
2024-01-08T11:02:38.437Z,5.03
2024-01-08T11:05:06.999Z,5.10
2024-01-08T11:07:37.810Z,5.15
2024-01-08T11:10:07.392Z,4.82
2024-01-08T11:12:37.958Z,4.82
2024-01-08T11:15:05.913Z,4.60
2024-01-08T11:17:34.255Z,4.57
2024-01-08T11:20:06.946Z,5.60
2024-01-08T11:22:34.729Z,4.65
2024-01-08T11:25:01.901Z,4.40
2024-01-08T11:27:28.946Z,4.57
2024-01-08T11:30:01.413Z,4.75
2024-01-08T11:32:48.686Z,4.50
2024-01-08T11:35:17.794Z,5.25
2024-01-08T11:37:45.558Z,5.35
2024-01-08T11:40:20.472Z,4.90
2024-01-08T11:42:48.403Z,4.80
2024-01-08T11:45:15.696Z,5.03
2024-01-08T11:47:44.085Z,4.55
2024-01-08T11:50:11.569Z,5.25
2024-01-08T11:52:39.594Z,5.22
2024-01-08T11:55:10.492Z,6.07
2024-01-08T11:57:38.049Z,6.07
2024-01-08T12:00:13.475Z,5.00
2024-01-08T12:02:41.409Z,5.30
2024-01-08T12:05:10.170Z,4.53
2024-01-08T12:07:39.349Z,5.20
2024-01-08T12:10:07.586Z,5.63
2024-01-08T12:12:34.763Z,5.68
2024-01-08T12:15:01.975Z,5.13
2024-01-08T12:17:29.478Z,5.53
2024-01-08T12:19:57.374Z,5.50
2024-01-08T12:22:25.614Z,5.47
2024-01-08T12:24:53.666Z,5.65
2024-01-08T12:27:22.219Z,5.95
2024-01-08T12:29:50.856Z,5.45
2024-01-08T12:32:19.178Z,5.47
2024-01-08T12:34:46.638Z,5.22
2024-01-08T12:37:14.957Z,5.80
2024-01-08T12:39:42.137Z,6.47
2024-01-08T12:42:11.051Z,6.47
2024-01-08T12:44:38.770Z,6.07
2024-01-08T12:47:08.560Z,6.40
2024-01-08T12:49:36.216Z,5.57
2024-01-08T12:52:03.835Z,5.60
2024-01-08T12:54:32.330Z,5.93
2024-01-08T12:57:00.091Z,5.97
2024-01-08T12:59:28.485Z,5.72
2024-01-08T13:01:56.120Z,5.68
2024-01-08T13:04:23.878Z,5.50
2024-01-08T13:06:51.352Z,5.73
2024-01-08T13:09:18.691Z,5.38
2024-01-08T13:11:46.023Z,5.90
2024-01-08T13:14:15.052Z,5.22
2024-01-08T13:16:43.106Z,5.10
2024-01-08T13:19:10.493Z,5.50
2024-01-08T13:21:40.268Z,5.72
2024-01-08T13:24:10.931Z,6.10
2024-01-08T13:26:38.876Z,6.00
2024-01-08T13:29:08.765Z,6.38
2024-01-08T13:31:37.462Z,6.05
2024-01-08T13:34:08.604Z,6.65
2024-01-08T13:36:37.375Z,6.10
2024-01-08T13:39:05.329Z,6.40
2024-01-08T13:41:35.066Z,6.25
2024-01-08T13:44:03.448Z,6.20
2024-01-08T13:46:30.916Z,6.45
2024-01-08T13:48:58.496Z,6.80
2024-01-08T13:51:25.836Z,6.80
2024-01-08T13:53:55.160Z,5.60
2024-01-08T13:56:22.461Z,7.18
2024-01-08T13:58:51.736Z,6.50
2024-01-08T14:01:19.146Z,6.33
2024-01-08T14:03:46.638Z,6.43
2024-01-08T14:06:14.146Z,6.68
2024-01-08T14:08:41.957Z,6.80
2024-01-08T14:11:09.476Z,6.30
2024-01-08T14:13:36.732Z,6.85
2024-01-08T14:16:04.611Z,6.82
2024-01-08T14:18:32.162Z,6.50
2024-01-08T14:20:59.693Z,6.88
2024-01-08T14:23:27.004Z,7.13
2024-01-08T14:25:54.364Z,6.82
2024-01-08T14:28:21.674Z,6.45
2024-01-08T14:30:50.416Z,7.18
2024-01-08T14:33:17.948Z,6.70
2024-01-08T14:35:45.311Z,6.75
2024-01-08T14:38:13.311Z,6.55
2024-01-08T14:40:45.094Z,6.57
2024-01-08T14:43:12.348Z,6.78
2024-01-08T14:45:39.493Z,6.70
2024-01-08T14:48:06.919Z,7.47
2024-01-08T14:50:34.395Z,6.97
2024-01-08T14:53:01.715Z,6.90
2024-01-08T14:55:28.887Z,6.47
2024-01-08T14:57:56.437Z,6.43
2024-01-08T15:00:26.326Z,6.97
2024-01-08T15:02:55.110Z,6.70
2024-01-08T15:05:24.814Z,7.03
2024-01-08T15:07:52.354Z,7.03
2024-01-08T15:10:22.240Z,6.43
2024-01-08T15:12:49.549Z,6.87
2024-01-08T15:15:18.287Z,6.93
2024-01-08T15:17:45.730Z,6.90
2024-01-08T15:20:16.513Z,6.72
2024-01-08T15:22:45.892Z,6.35
2024-01-08T15:25:13.466Z,6.55
2024-01-08T15:27:41.124Z,6.80
2024-01-08T15:30:10.057Z,6.38
2024-01-08T15:32:37.322Z,6.60
2024-01-08T15:35:05.409Z,6.55
2024-01-08T15:37:32.752Z,6.82
2024-01-08T15:40:00.147Z,7.05
2024-01-08T15:42:27.418Z,6.47
2024-01-08T15:44:54.557Z,6.65
2024-01-08T15:47:22.103Z,6.43
2024-01-08T15:49:49.383Z,6.40
2024-01-08T15:52:17.050Z,7.25
2024-01-08T15:54:44.267Z,8.27
2024-01-08T15:57:11.361Z,6.63
2024-01-08T15:59:40.576Z,6.30
2024-01-08T16:02:07.927Z,6.60
2024-01-08T16:04:36.955Z,6.32
2024-01-08T16:07:04.751Z,6.55
2024-01-08T16:09:33.172Z,6.72
2024-01-08T16:12:01.006Z,7.15
2024-01-08T16:14:28.150Z,6.68
2024-01-08T16:16:55.381Z,6.80
2024-01-08T16:19:23.578Z,6.43
2024-01-08T16:21:50.816Z,7.20
2024-01-08T16:24:18.215Z,6.57
2024-01-08T16:26:47.168Z,6.85
2024-01-08T16:29:14.519Z,6.95
2024-01-08T16:31:41.827Z,6.95
2024-01-08T16:34:10.749Z,6.90
2024-01-08T16:36:39.061Z,6.95
2024-01-08T16:39:06.307Z,6.78
2024-01-08T16:41:33.506Z,6.55
2024-01-08T16:44:01.612Z,6.72
2024-01-08T16:46:28.892Z,6.60
2024-01-08T16:48:56.736Z,7.00
2024-01-08T16:51:24.728Z,7.22
2024-01-08T16:53:51.891Z,7.47
2024-01-08T16:56:19.182Z,7.10
2024-01-08T16:58:46.384Z,7.13
2024-01-08T17:01:13.611Z,7.15
2024-01-08T17:03:41.235Z,7.10
2024-01-08T17:06:10.968Z,7.47
2024-01-08T17:08:38.537Z,7.30
2024-01-08T17:11:06.331Z,7.22
2024-01-08T17:13:33.680Z,7.80
2024-01-08T17:16:00.852Z,7.20
2024-01-08T17:18:28.067Z,7.50
2024-01-08T17:20:55.477Z,7.55
2024-01-08T17:23:22.688Z,7.65
2024-01-08T17:25:50.229Z,7.35
2024-01-08T17:28:19.364Z,7.72
2024-01-08T17:30:47.173Z,7.47
2024-01-08T17:33:14.509Z,7.53
2024-01-08T17:35:42.227Z,7.32
2024-01-08T17:38:12.015Z,7.75
2024-01-08T17:40:40.555Z,7.97
2024-01-08T17:43:08.011Z,7.90
2024-01-08T17:45:35.326Z,7.38
2024-01-08T17:48:03.089Z,8.20
2024-01-08T17:50:33.202Z,8.25
2024-01-08T17:53:01.065Z,9.10
2024-01-08T17:55:28.442Z,8.50
2024-01-08T17:57:55.724Z,7.97
2024-01-08T18:00:22.976Z,7.78
2024-01-08T18:02:50.449Z,8.43
2024-01-08T18:05:18.035Z,7.35
2024-01-08T18:07:45.391Z,8.13
2024-01-08T18:10:12.741Z,8.40
2024-01-08T18:12:43.581Z,7.97
2024-01-08T18:15:11.414Z,8.13
2024-01-08T18:17:40.801Z,7.97
2024-01-08T18:20:08.720Z,8.23
2024-01-08T18:22:35.927Z,8.20
2024-01-08T18:25:03.239Z,7.47
2024-01-08T18:27:30.385Z,7.78
2024-01-08T18:29:57.475Z,7.50
2024-01-08T18:32:26.173Z,7.20
2024-01-08T18:34:53.390Z,8.40
2024-01-08T18:37:20.601Z,8.23
2024-01-08T18:39:47.747Z,9.00
2024-01-08T18:42:16.126Z,8.40
2024-01-08T18:44:44.005Z,8.77
2024-01-08T18:47:11.320Z,8.23
2024-01-08T18:49:38.758Z,8.57
2024-01-08T18:52:06.248Z,8.20
2024-01-08T18:54:33.368Z,8.70
2024-01-08T18:57:00.481Z,9.07
2024-01-08T18:59:30.248Z,8.20
2024-01-08T19:01:59.120Z,8.07
2024-01-08T19:04:28.301Z,9.73
2024-01-08T19:06:58.445Z,8.48
2024-01-08T19:09:28.065Z,8.82
2024-01-08T19:11:56.963Z,9.70
2024-01-08T19:14:24.375Z,9.23
2024-01-08T19:16:51.531Z,9.30
2024-01-08T19:19:18.809Z,9.20
2024-01-08T19:21:46.113Z,9.23
2024-01-08T19:24:13.283Z,8.60
2024-01-08T19:26:40.465Z,9.10
2024-01-08T19:29:07.699Z,9.10
2024-01-08T19:31:34.813Z,9.13
2024-01-08T19:34:06.066Z,9.23
2024-01-08T19:36:33.249Z,9.33
2024-01-08T19:39:02.155Z,9.10
2024-01-08T19:41:29.674Z,9.07
2024-01-08T19:43:56.701Z,8.60
2024-01-08T19:46:23.849Z,9.85
2024-01-08T19:48:51.083Z,9.52
2024-01-08T19:51:18.208Z,9.02
2024-01-08T19:53:45.469Z,8.93
2024-01-08T19:56:13.470Z,9.75
2024-01-08T19:58:41.575Z,8.85
2024-01-08T20:01:08.782Z,10.27
2024-01-08T20:03:37.218Z,9.70
2024-01-08T20:06:05.742Z,9.68
2024-01-08T20:08:33.122Z,8.68
2024-01-08T20:11:00.405Z,9.00
2024-01-08T20:13:27.983Z,8.18
2024-01-08T20:15:55.211Z,9.13
2024-01-08T20:18:22.439Z,8.90
2024-01-08T20:20:49.746Z,8.95
2024-01-08T20:23:17.002Z,8.73
2024-01-08T20:25:44.222Z,8.95
2024-01-08T20:28:12.437Z,9.27
2024-01-08T20:30:39.635Z,9.15
2024-01-08T20:33:07.091Z,9.07
2024-01-08T20:35:34.409Z,9.13
2024-01-08T20:38:01.679Z,9.02
2024-01-08T20:40:28.856Z,9.00
2024-01-08T20:42:56.288Z,8.57
2024-01-08T20:45:23.411Z,9.15
2024-01-08T20:47:50.688Z,9.00
2024-01-08T20:50:18.647Z,9.40
2024-01-08T20:52:45.958Z,9.40
2024-01-08T20:55:13.055Z,8.82
2024-01-08T20:57:40.269Z,9.18
2024-01-08T21:00:07.948Z,9.27
2024-01-08T21:02:35.360Z,9.70
2024-01-08T21:05:03.016Z,8.68
2024-01-08T21:07:30.838Z,8.98
2024-01-08T21:09:57.949Z,9.20
2024-01-08T21:12:25.082Z,10.07
2024-01-08T21:14:53.115Z,9.63
2024-01-08T21:17:20.372Z,9.85
2024-01-08T21:19:47.516Z,9.30
2024-01-08T21:22:14.672Z,9.32
2024-01-08T21:24:41.869Z,8.87
2024-01-08T21:27:09.000Z,8.98
2024-01-08T21:29:36.180Z,8.70
2024-01-08T21:32:03.341Z,9.40
2024-01-08T21:34:30.557Z,9.55
2024-01-08T21:36:58.838Z,9.83
2024-01-08T21:39:26.033Z,9.50
2024-01-08T21:41:53.157Z,9.50
2024-01-08T21:44:20.407Z,9.40
2024-01-08T21:46:47.762Z,9.13
2024-01-08T21:49:17.096Z,9.25
2024-01-08T21:51:44.399Z,9.25
2024-01-08T21:54:11.573Z,8.67
2024-01-08T21:56:38.784Z,8.95
2024-01-08T21:59:06.241Z,8.73
2024-01-08T22:01:33.384Z,9.10
2024-01-08T22:04:00.901Z,8.70
2024-01-08T22:06:28.133Z,9.90
2024-01-08T22:08:55.298Z,9.88
2024-01-08T22:11:22.468Z,9.30
2024-01-08T22:13:49.981Z,9.88
2024-01-08T22:16:17.124Z,9.63
2024-01-08T22:18:44.240Z,9.48
2024-01-08T22:21:11.526Z,9.60
2024-01-08T22:23:39.454Z,9.18
2024-01-08T22:26:06.623Z,9.05
2024-01-08T22:28:33.788Z,9.18
2024-01-08T22:31:01.092Z,9.43
2024-01-08T22:33:28.752Z,9.25
2024-01-08T22:35:57.225Z,8.90
2024-01-08T22:38:24.575Z,8.48
2024-01-08T22:40:51.810Z,7.90
2024-01-08T22:43:18.963Z,7.20
2024-01-08T22:45:46.081Z,6.63
2024-01-08T22:48:13.398Z,7.45
2024-01-08T22:50:40.610Z,7.22
2024-01-08T22:53:07.765Z,6.85
2024-01-08T22:55:34.917Z,7.20
2024-01-08T22:58:02.082Z,7.50
2024-01-08T23:00:30.220Z,7.00
2024-01-08T23:02:58.985Z,7.03
2024-01-08T23:05:26.301Z,6.70
2024-01-08T23:07:53.442Z,6.82
2024-01-08T23:10:20.618Z,7.28
2024-01-08T23:12:47.768Z,7.20
2024-01-08T23:15:16.935Z,7.60
2024-01-08T23:17:44.673Z,6.93
2024-01-08T23:20:12.001Z,6.93
2024-01-08T23:22:41.142Z,6.40
2024-01-08T23:25:08.525Z,6.50
2024-01-08T23:27:35.629Z,7.10
2024-01-08T23:30:02.912Z,6.60
2024-01-08T23:32:30.296Z,6.53
2024-01-08T23:34:57.471Z,7.63
2024-01-08T23:37:25.188Z,6.85
2024-01-08T23:39:52.412Z,6.65
2024-01-08T23:42:19.555Z,7.05
2024-01-08T23:44:46.729Z,6.90
2024-01-08T23:47:13.992Z,6.40
2024-01-08T23:49:41.196Z,6.45
2024-01-08T23:52:08.383Z,6.00
2024-01-08T23:54:35.566Z,6.35
2024-01-08T23:57:03.291Z,7.50
2024-01-08T23:59:30.469Z,6.72
